Assembly Point, New York
Current Conditions -  °F | °C
As of 2:53 AM on Saturday 20 Dec 2014 (Local Time) from KGFL Reporting Station
Overcast Overcast  
Wind Chill: 22°   Ceiling: 2000
Heat Index: 22°   Visibility: 10mi
Dew Point: 16°   Wind: 0mph
Humidity: 78%   Direction: NA
Pressure: 30.24"   Gusts: NA
Location:  43.4218°N, 73.7084°W
Report Text: KGFL 200753Z AUTO 00000KT 10SM OVC020 M06/M09 A3024 RMK AO2 SLP250 T10561089
Loading
Personal Weather Stations






























Interactive Weather Map New forecast layout! Learn more

10-Day Weather Forecast

Advertisements
Track Severe Weather on mobile